Terminal Aerodrome Forecast
Issued by NWS

Home | Current Version | Previous Version | Text Only | Print | Product List | Glossary On
Versions: 1 2 3 4 5 6 7 8 9 10 11 12 13 14 15 16 17
000
FTUS45 KGJT 300528
TAFEGE
TAF
KEGE 300528Z 3006/3106 08004KT P6SM SKC
     FM301400 VRB03KT P6SM SCT110
     FM302100 24007KT P6SM BKN090
     FM302300 14006KT P6SM VCSH BKN080
     FM310000 16006KT P6SM BKN080
      AMD LTD TO CLD VIS AND WIND TIL 301300=

USA.gov is the U.S. government's official web portal to all federal, state and local government web resources and services.